Time;durP1;ratioP1;P1;durP2;ratioP2;P2;SDS_P1;SDS_P2;PMS_P1;PMS_P2;Temp;Humidity;BMP_temperature;BMP_pressure;BME280_temperature;BME280_humidity;BME280_pressure;Samples;Min_cycle;Max_cycle;Signal;HPM_P1;HPM_P2
2022/06/28 00:02:57;;;;;;;3.70;2.63;;;;;;;27.23;44.75;101852.84;5053150;28;20106;-69
2022/06/28 00:05:22;;;;;;;2.78;2.40;;;;;;;27.20;44.74;101853.00;5053080;28;20479;-69
2022/06/28 00:07:48;;;;;;;3.15;2.40;;;;;;;27.18;44.77;101863.75;5053098;28;20086;-69
2022/06/28 00:10:15;;;;;;;2.83;2.20;;;;;;;27.19;44.78;101864.63;5051940;28;20455;-69
2022/06/28 00:12:41;;;;;;;2.67;2.28;;;;;;;27.20;44.87;101874.41;5051611;28;20033;-69
2022/06/28 00:17:53;;;;;;;4.28;2.40;;;;;;;27.18;44.65;101873.59;5053141;28;20040;-69
2022/06/28 00:20:20;;;;;;;2.45;2.25;;;;;;;27.16;44.65;101862.06;5053093;28;20032;-69
2022/06/28 00:22:45;;;;;;;3.15;2.20;;;;;;;27.16;44.51;101868.28;5052343;28;20064;-69
2022/06/28 00:25:11;;;;;;;2.83;2.10;;;;;;;27.17;44.60;101863.81;5052750;28;20052;-69
2022/06/28 00:27:37;;;;;;;3.17;2.35;;;;;;;27.15;44.63;101865.66;5052859;28;20025;-69
2022/06/28 00:30:04;;;;;;;2.88;2.40;;;;;;;27.12;44.53;101869.34;5051617;28;20037;-69
2022/06/28 00:32:29;;;;;;;4.15;2.17;;;;;;;27.12;44.80;101865.78;5052507;28;20085;-70
2022/06/28 00:34:55;;;;;;;2.38;2.10;;;;;;;27.11;44.75;101866.72;5052781;28;20060;-69
2022/06/28 00:37:20;;;;;;;2.60;2.10;;;;;;;27.15;44.64;101868.34;5052839;28;20052;-70
2022/06/28 00:39:46;;;;;;;2.50;2.20;;;;;;;27.16;44.50;101870.09;5052971;28;20035;-69
2022/06/28 00:42:11;;;;;;;3.05;2.20;;;;;;;27.16;44.33;101872.75;5052184;28;20053;-69
2022/06/28 00:44:37;;;;;;;3.00;2.40;;;;;;;27.15;44.33;101873.69;5052892;28;21099;-69
2022/06/28 00:47:04;;;;;;;2.33;2.10;;;;;;;27.13;44.53;101876.44;5052866;28;20032;-69
2022/06/28 00:49:30;;;;;;;2.45;2.22;;;;;;;27.13;44.59;101875.56;5052340;28;20036;-69
2022/06/28 00:51:58;;;;;;;3.10;2.20;;;;;;;27.11;44.35;101877.44;5055064;28;20025;-69
2022/06/28 00:54:24;;;;;;;2.70;2.08;;;;;;;27.11;44.20;101880.09;5056719;28;20048;-69
2022/06/28 00:56:50;;;;;;;3.03;2.20;;;;;;;27.10;44.44;101886.38;5056544;28;20059;-69
2022/06/28 00:59:15;;;;;;;2.10;1.90;;;;;;;27.11;44.31;101885.47;5054987;28;20475;-69
2022/06/28 01:01:41;;;;;;;2.58;2.00;;;;;;;27.09;44.43;101884.63;5056348;28;20128;-69
2022/06/28 01:04:06;;;;;;;3.15;2.10;;;;;;;27.08;44.45;101891.78;5056491;28;20027;-69
2022/06/28 01:06:32;;;;;;;3.20;2.10;;;;;;;27.07;44.45;101887.41;5056102;28;20064;-69
2022/06/28 01:08:57;;;;;;;2.95;2.10;;;;;;;27.07;44.37;101881.16;5056299;28;20032;-69
2022/06/28 01:11:23;;;;;;;3.35;2.17;;;;;;;27.07;44.21;101894.56;5055893;28;20035;-69
2022/06/28 01:13:55;;;;;;;2.95;2.05;;;;;;;27.05;44.20;101889.25;5056055;28;20091;-69
2022/06/28 01:16:21;;;;;;;2.80;2.30;;;;;;;27.05;44.23;101897.28;5054549;28;20386;-70
2022/06/28 01:18:47;;;;;;;2.25;1.95;;;;;;;27.02;44.08;101895.59;5055612;28;20036;-69
2022/06/28 01:21:14;;;;;;;2.45;2.08;;;;;;;27.03;44.32;101891.09;5055766;28;20037;-69
2022/06/28 01:23:44;;;;;;;2.22;1.90;;;;;;;27.04;44.14;101893.72;5055818;28;20087;-69
2022/06/28 01:26:15;;;;;;;4.00;2.00;;;;;;;27.03;44.21;101899.13;5056023;28;20040;-69
2022/06/28 01:28:42;;;;;;;2.47;2.05;;;;;;;27.02;44.41;101900.06;5015979;28;20060;-69
2022/06/28 01:31:08;;;;;;;2.33;1.90;;;;;;;27.01;44.38;101901.91;5016163;28;20030;-69
2022/06/28 01:33:36;;;;;;;2.33;1.90;;;;;;;26.98;44.28;101899.31;5024772;28;20455;-69
2022/06/28 01:36:02;;;;;;;2.47;2.03;;;;;;;26.98;44.29;101907.34;5055611;28;20505;-69
2022/06/28 01:38:28;;;;;;;2.53;2.05;;;;;;;26.95;44.26;101912.84;5055497;28;20032;-69
2022/06/28 01:40:54;;;;;;;2.78;1.90;;;;;;;26.96;44.21;101913.69;5054177;28;20052;-69
2022/06/28 01:43:19;;;;;;;2.40;2.00;;;;;;;26.97;44.12;101915.44;5055259;28;20116;-69
2022/06/28 01:45:45;;;;;;;3.17;1.90;;;;;;;26.96;44.29;101919.91;5055623;28;20033;-69
2022/06/28 01:48:10;;;;;;;2.10;1.90;;;;;;;26.90;44.52;101914.78;5055235;28;20037;-69
2022/06/28 01:50:37;;;;;;;2.95;1.90;;;;;;;26.87;44.28;101909.53;5055231;28;20033;-69
2022/06/28 01:53:02;;;;;;;2.72;1.90;;;;;;;26.88;44.34;101908.66;5053946;28;20070;-69
2022/06/28 01:55:28;;;;;;;2.33;1.95;;;;;;;26.88;44.31;101914.00;5055195;28;20025;-70
2022/06/28 01:57:54;;;;;;;2.50;2.00;;;;;;;26.88;44.17;101915.75;5055173;28;20430;-69
2022/06/28 02:00:19;;;;;;;2.40;1.90;;;;;;;26.86;44.29;101921.16;5020885;28;20175;-69
2022/06/28 02:02:45;;;;;;;2.83;2.03;;;;;;;26.87;44.32;101916.69;5054308;28;20126;-69
2022/06/28 02:05:10;;;;;;;2.75;1.90;;;;;;;26.86;44.32;101917.63;5055183;28;20447;-69
2022/06/28 02:07:36;;;;;;;2.22;1.98;;;;;;;26.86;44.26;101909.59;5054809;28;20398;-69
2022/06/28 02:10:02;;;;;;;2.63;1.88;;;;;;;26.85;44.43;101915.88;5053720;28;20044;-69
2022/06/28 02:12:28;;;;;;;2.30;1.88;;;;;;;26.83;44.12;101917.75;5054849;28;20029;-69
2022/06/28 02:14:57;;;;;;;1.88;1.60;;;;;;;26.82;44.22;101907.97;5053692;28;20529;-69
2022/06/28 02:17:23;;;;;;;2.08;1.73;;;;;;;26.83;44.17;101915.94;5055107;28;20036;-69
2022/06/28 02:19:48;;;;;;;2.63;1.90;;;;;;;26.82;44.12;101919.53;5054915;28;20539;-69
2022/06/28 02:22:14;;;;;;;2.00;1.80;;;;;;;26.82;44.15;101927.56;5054791;28;20090;-69
2022/06/28 02:24:40;;;;;;;2.55;1.80;;;;;;;26.82;44.11;101929.38;5054824;28;20433;-69
2022/06/28 02:27:05;;;;;;;2.10;1.80;;;;;;;26.81;44.32;101935.66;5055009;28;20029;-69
2022/06/28 02:29:31;;;;;;;2.47;1.80;;;;;;;26.79;44.13;101926.78;5054550;28;20036;-69
2022/06/28 02:31:56;;;;;;;2.15;1.77;;;;;;;26.79;44.26;101935.69;5053152;28;20399;-69
2022/06/28 02:42:33;;;;;;;;;;;;;;;26.79;44.16;101946.41;5054586;28;20136;-69
2022/06/28 02:44:58;;;;;;;2.63;1.93;;;;;;;26.80;44.01;101949.94;5054176;28;19944;-69
2022/06/28 02:47:24;;;;;;;2.17;1.80;;;;;;;26.77;44.08;101937.59;5053990;28;20283;-69
2022/06/28 02:49:49;;;;;;;2.47;1.80;;;;;;;26.75;43.93;101943.91;5054119;28;20037;-69
2022/06/28 02:52:15;;;;;;;2.05;1.70;;;;;;;26.73;43.99;101940.41;5053981;28;20025;-69
2022/06/28 02:54:40;;;;;;;1.98;1.60;;;;;;;26.73;44.12;101946.63;5052975;28;20263;-69
2022/06/28 02:57:05;;;;;;;2.25;1.80;;;;;;;26.70;44.08;101946.75;5053899;28;20502;-69
2022/06/28 02:59:31;;;;;;;1.85;1.60;;;;;;;26.70;43.95;101941.41;5054020;28;20021;-69
2022/06/28 03:01:56;;;;;;;1.90;1.70;;;;;;;26.72;43.85;101946.69;5054039;28;20368;-69
2022/06/28 03:04:21;;;;;;;2.25;1.73;;;;;;;26.71;44.07;101944.97;5052669;28;20024;-69
2022/06/28 03:06:47;;;;;;;2.08;1.60;;;;;;;26.71;43.90;101944.97;5053927;28;20032;-69
2022/06/28 03:09:12;;;;;;;2.65;1.70;;;;;;;26.69;44.00;101950.34;5053686;28;20032;-69
2022/06/28 03:11:37;;;;;;;2.33;1.70;;;;;;;26.70;43.97;101943.22;5053747;28;20068;-69
2022/06/28 03:14:03;;;;;;;2.88;1.65;;;;;;;26.70;43.86;101945.88;5052906;28;20024;-69
2022/06/28 03:16:28;;;;;;;2.00;1.70;;;;;;;26.71;43.79;101952.97;5035742;28;20043;-69
2022/06/28 03:18:54;;;;;;;1.73;1.60;;;;;;;26.69;43.79;101954.84;5052315;28;20442;-69
2022/06/28 03:21:19;;;;;;;2.15;1.70;;;;;;;26.67;43.83;101963.78;5053669;28;20036;-69
2022/06/28 03:23:44;;;;;;;2.30;1.80;;;;;;;26.65;43.93;101954.94;5053415;28;20029;-69
2022/06/28 03:26:10;;;;;;;2.05;1.70;;;;;;;26.67;43.77;101963.78;5052480;28;20083;-69
2022/06/28 03:28:35;;;;;;;2.30;1.65;;;;;;;26.67;43.85;101966.44;5053605;28;20025;-69
2022/06/28 03:31:00;;;;;;;1.98;1.60;;;;;;;26.66;43.84;101966.50;5053715;28;20516;-69
2022/06/28 03:33:26;;;;;;;3.45;1.80;;;;;;;26.63;43.85;101966.63;5035422;28;20035;-69
2022/06/28 03:35:51;;;;;;;1.98;1.52;;;;;;;26.63;43.77;101966.63;5053391;28;20063;-69
2022/06/28 03:38:16;;;;;;;2.28;1.63;;;;;;;26.64;43.54;101969.25;5053463;28;20544;-69
2022/06/28 03:40:42;;;;;;;2.70;1.77;;;;;;;26.63;43.90;101967.50;5053355;28;20590;-69
2022/06/28 03:43:08;;;;;;;1.90;1.60;;;;;;;26.64;43.64;101963.03;5052217;28;20049;-70
2022/06/28 03:45:34;;;;;;;2.58;1.80;;;;;;;26.63;43.50;101971.97;5053250;28;20483;-69
2022/06/28 03:47:59;;;;;;;1.90;1.60;;;;;;;26.63;43.72;101974.66;5052937;28;20055;-69
2022/06/28 03:50:24;;;;;;;2.22;1.67;;;;;;;26.59;43.69;101965.84;5051813;28;20094;-69
2022/06/28 03:52:50;;;;;;;1.80;1.50;;;;;;;26.59;43.67;101976.53;5053246;28;20340;-69
2022/06/28 03:55:15;;;;;;;1.50;1.40;;;;;;;26.58;43.63;101966.81;5052313;28;20029;-69
2022/06/28 03:57:40;;;;;;;1.90;1.67;;;;;;;26.60;43.71;101966.72;5053081;28;20031;-69
2022/06/28 04:00:06;;;;;;;1.85;1.60;;;;;;;26.60;43.72;101970.28;5053342;28;20037;-69
2022/06/28 04:02:32;;;;;;;1.85;1.60;;;;;;;26.58;43.71;101973.94;5053072;28;20090;-69
2022/06/28 04:04:57;;;;;;;1.92;1.50;;;;;;;26.59;43.64;101979.22;5053065;28;20048;-69
2022/06/28 04:07:23;;;;;;;2.90;1.60;;;;;;;26.55;43.69;101979.38;5052915;28;20091;-69
2022/06/28 04:09:48;;;;;;;2.30;1.50;;;;;;;26.58;43.67;101985.53;5053055;28;20036;-69
2022/06/28 04:12:13;;;;;;;1.88;1.50;;;;;;;26.54;43.75;101983.88;5052954;28;20111;-69
2022/06/28 04:14:39;;;;;;;2.00;1.60;;;;;;;26.58;43.64;101984.66;5051402;28;20029;-69
2022/06/28 04:17:04;;;;;;;2.30;1.63;;;;;;;26.55;43.57;101982.94;5051718;28;20033;-69
2022/06/28 04:19:29;;;;;;;2.17;1.67;;;;;;;26.59;43.41;101986.41;5052794;28;20025;-70
2022/06/28 04:21:56;;;;;;;1.90;1.58;;;;;;;26.57;43.40;101993.59;5051474;28;20118;-69
2022/06/28 04:24:21;;;;;;;1.90;1.52;;;;;;;26.55;43.69;101976.72;5035047;28;20029;-70
2022/06/28 04:26:46;;;;;;;2.10;1.67;;;;;;;26.56;43.65;101982.03;5055450;28;20348;-70
2022/06/28 04:29:12;;;;;;;2.10;1.67;;;;;;;26.56;43.63;101982.03;5022708;28;20501;-68
2022/06/28 04:31:37;;;;;;;1.85;1.50;;;;;;;26.56;43.46;101984.69;5056724;28;20028;-70
2022/06/28 04:34:02;;;;;;;1.80;1.48;;;;;;;26.54;43.45;101981.19;5057049;28;20063;-69
2022/06/28 04:36:28;;;;;;;1.80;1.42;;;;;;;26.54;43.47;101985.66;5056860;28;20044;-69
2022/06/28 04:38:53;;;;;;;2.67;1.60;;;;;;;26.54;43.57;101983.00;5038717;28;20059;-69
2022/06/28 04:41:23;;;;;;;2.13;1.60;;;;;;;26.55;43.34;101987.41;5056455;28;20076;-69
2022/06/28 04:43:50;;;;;;;1.95;1.52;;;;;;;26.53;43.40;101989.28;5056370;28;20123;-69
2022/06/28 04:46:15;;;;;;;1.73;1.52;;;;;;;26.54;43.41;101989.22;5056663;28;20044;-69
2022/06/28 04:48:40;;;;;;;2.00;1.60;;;;;;;26.50;43.33;101992.06;5056394;28;20037;-70
2022/06/28 04:51:12;;;;;;;2.15;1.55;;;;;;;26.50;43.43;101992.06;5056547;28;20025;-69
2022/06/28 04:53:42;;;;;;;2.00;1.60;;;;;;;26.50;43.49;101989.38;5056298;28;20029;-70
2022/06/28 04:56:08;;;;;;;2.00;1.50;;;;;;;26.50;43.53;101992.94;5056335;28;20107;-70
2022/06/28 04:58:34;;;;;;;1.92;1.50;;;;;;;26.52;43.28;101992.88;5056623;28;20029;-69
2022/06/28 05:01:00;;;;;;;1.75;1.45;;;;;;;26.51;43.56;101991.13;5056359;28;20371;-69
2022/06/28 05:03:25;;;;;;;1.80;1.60;;;;;;;26.47;43.54;101987.69;5056299;28;20021;-70
2022/06/28 05:05:51;;;;;;;2.40;1.52;;;;;;;26.47;43.49;101984.16;5054970;28;20029;-70
2022/06/28 05:08:16;;;;;;;1.80;1.50;;;;;;;26.43;43.85;101988.72;5056131;28;20032;-69
2022/06/28 05:10:41;;;;;;;1.65;1.40;;;;;;;26.45;43.68;101994.91;5054991;28;20029;-70
2022/06/28 05:13:07;;;;;;;2.35;1.40;;;;;;;26.43;43.42;101991.41;5055923;28;20036;-70
2022/06/28 05:15:32;;;;;;;1.63;1.50;;;;;;;26.47;43.61;101997.53;5055951;28;20033;-71
2022/06/28 05:17:57;;;;;;;2.13;1.60;;;;;;;26.39;43.83;101989.78;5038169;28;20389;-69
2022/06/28 05:20:23;;;;;;;2.38;1.40;;;;;;;26.35;43.83;101988.09;5056092;28;20032;-70
2022/06/28 05:22:48;;;;;;;1.80;1.50;;;;;;;26.41;43.83;101989.72;5055988;28;20032;-70
2022/06/28 05:25:14;;;;;;;2.15;1.60;;;;;;;26.49;43.47;101995.66;5055792;28;20091;-69
2022/06/28 05:27:39;;;;;;;1.95;1.50;;;;;;;26.45;43.61;101994.03;5056130;28;20041;-69
2022/06/28 05:30:05;;;;;;;2.20;1.50;;;;;;;26.45;43.70;102000.25;5056015;28;20032;-69
2022/06/28 05:32:30;;;;;;;2.67;1.60;;;;;;;26.43;43.72;102001.22;5055856;28;20033;-70
2022/06/28 05:34:56;;;;;;;1.80;1.40;;;;;;;26.46;43.55;102009.16;5055817;28;20505;-70
2022/06/28 05:37:21;;;;;;;1.63;1.40;;;;;;;26.47;43.68;102001.06;5036689;28;20292;-71
2022/06/28 05:39:46;;;;;;;1.88;1.50;;;;;;;26.50;43.64;102006.31;5055504;28;20032;-70
2022/06/28 05:42:14;;;;;;;1.50;1.33;;;;;;;26.50;43.58;102002.75;5055475;28;20487;-72
2022/06/28 05:44:39;;;;;;;1.90;1.50;;;;;;;26.50;43.64;102006.31;5054978;28;20029;-69
2022/06/28 05:47:05;;;;;;;1.70;1.52;;;;;;;26.51;43.67;101997.38;5055690;28;20357;-67
2022/06/28 05:49:30;;;;;;;1.58;1.30;;;;;;;26.52;43.58;102008.94;5054440;28;20029;-66
2022/06/28 05:51:55;;;;;;;1.80;1.40;;;;;;;26.55;43.79;102015.03;5055545;28;20442;-68
2022/06/28 05:54:21;;;;;;;1.73;1.40;;;;;;;26.57;43.74;102010.53;5055300;28;20079;-65
2022/06/28 05:56:46;;;;;;;2.03;1.40;;;;;;;26.62;43.82;102005.88;5053903;28;20090;-68
2022/06/28 05:59:11;;;;;;;3.47;1.70;;;;;;;26.66;43.89;102006.63;5055172;28;20123;-69
2022/06/28 06:01:37;;;;;;;1.98;1.48;;;;;;;26.72;43.75;102008.22;5054913;28;20040;-68
2022/06/28 06:04:02;;;;;;;2.20;1.60;;;;;;;26.76;43.88;102007.19;5055256;28;20029;-70
2022/06/28 06:06:28;;;;;;;1.88;1.45;;;;;;;26.79;43.92;102009.75;5053452;28;20036;-71
2022/06/28 06:08:53;;;;;;;1.80;1.40;;;;;;;27.87;41.96;102011.00;5055067;28;20050;-72
2022/06/28 06:11:19;;;;;;;3.00;2.00;;;;;;;31.57;34.56;102008.28;5054092;28;20471;-71
2022/06/28 06:13:44;;;;;;;2.00;1.55;;;;;;;30.71;35.59;102008.50;5054237;28;20021;-70
2022/06/28 06:16:09;;;;;;;1.73;1.30;;;;;;;28.33;40.23;102018.91;5054257;28;20106;-71
2022/06/28 06:18:35;;;;;;;1.60;1.30;;;;;;;27.52;42.33;102023.97;5053619;28;20444;-72
2022/06/28 06:21:00;;;;;;;3.92;1.55;;;;;;;27.27;43.36;102021.34;5054015;28;20036;-71
2022/06/28 06:23:26;;;;;;;2.15;1.40;;;;;;;27.16;43.31;102028.03;5053242;28;20033;-71
2022/06/28 06:25:52;;;;;;;2.15;1.50;;;;;;;27.11;43.59;102036.25;5054678;28;20491;-69
2022/06/28 06:28:17;;;;;;;2.08;1.40;;;;;;;27.07;43.49;102031.06;5054946;28;20124;-69
2022/06/28 06:30:42;;;;;;;2.50;1.50;;;;;;;27.07;43.55;102031.06;5054678;28;20029;-69
2022/06/28 06:33:08;;;;;;;2.53;1.35;;;;;;;27.06;43.69;102024.84;5054539;28;20067;-69
2022/06/28 06:35:33;;;;;;;2.05;1.48;;;;;;;27.06;43.58;102032.88;5054487;28;20036;-68
2022/06/28 06:38:01;;;;;;;3.03;1.42;;;;;;;27.05;43.85;102036.47;5054638;28;20060;-69
2022/06/28 06:40:28;;;;;;;2.35;1.50;;;;;;;27.05;43.79;102039.16;5053139;28;20036;-69
2022/06/28 06:42:53;;;;;;;2.40;1.40;;;;;;;27.10;43.54;102044.31;5054576;28;20032;-68
2022/06/28 06:45:18;;;;;;;2.38;1.40;;;;;;;27.08;43.36;102044.38;5053248;28;20033;-68
2022/06/28 06:47:44;;;;;;;3.55;1.60;;;;;;;27.05;43.70;102047.19;5052507;28;20494;-74
2022/06/28 06:50:09;;;;;;;4.53;1.20;;;;;;;27.13;43.74;102045.09;5047090;28;20074;-71
2022/06/28 06:52:36;;;;;;;3.45;1.40;;;;;;;27.13;43.75;102050.47;5045764;28;20032;-71
2022/06/28 06:55:02;;;;;;;4.30;1.50;;;;;;;27.12;43.80;102042.47;5046032;28;20036;-71
2022/06/28 06:57:28;;;;;;;2.75;1.48;;;;;;;27.13;44.12;102045.09;5049984;28;20037;-71
2022/06/28 06:59:53;;;;;;;3.15;1.42;;;;;;;27.17;44.37;102045.84;5048527;28;20044;-72
2022/06/28 07:02:19;;;;;;;7.90;1.65;;;;;;;27.18;44.20;102044.91;5047686;28;20039;-72
2022/06/28 07:04:44;;;;;;;4.88;1.50;;;;;;;27.20;43.96;102051.94;5048028;28;20135;-72
2022/06/28 07:07:09;;;;;;;4.40;1.40;;;;;;;27.24;44.33;102050.94;5048724;28;20044;-72
2022/06/28 07:09:35;;;;;;;6.53;1.60;;;;;;;27.25;43.97;102047.31;5049814;28;20401;-72
2022/06/28 07:12:00;;;;;;;3.80;1.60;;;;;;;27.26;44.17;102053.56;5049195;28;20028;-72
2022/06/28 07:14:26;;;;;;;5.35;1.48;;;;;;;27.29;44.12;102050.75;5049129;28;20112;-71
2022/06/28 07:16:51;;;;;;;2.65;1.30;;;;;;;27.31;44.09;102047.09;5049469;28;20032;-71
2022/06/28 07:19:17;;;;;;;3.42;1.33;;;;;;;27.33;44.29;102047.88;5048962;28;20029;-72
2022/06/28 07:21:44;;;;;;;4.28;1.40;;;;;;;27.35;44.11;102039.81;5049293;28;20037;-72
2022/06/28 07:24:10;;;;;;;3.90;1.50;;;;;;;27.35;43.98;102054.06;5049178;28;20029;-71
2022/06/28 07:26:35;;;;;;;2.83;1.30;;;;;;;27.39;44.17;102044.97;5049472;28;20214;-72
2022/06/28 07:29:04;;;;;;;4.78;1.50;;;;;;;27.40;44.34;102038.69;5047768;28;20039;-71
2022/06/28 07:31:30;;;;;;;3.08;1.30;;;;;;;27.38;44.22;102048.63;5049317;28;20124;-71
2022/06/28 07:33:57;;;;;;;2.72;1.40;;;;;;;27.41;44.26;102052.97;5049148;28;20048;-71
2022/06/28 07:36:22;;;;;;;3.22;1.42;;;;;;;27.43;44.30;102045.75;5048489;28;20075;-71
2022/06/28 07:38:48;;;;;;;2.65;1.48;;;;;;;27.44;44.34;102045.69;5049023;28;20402;-71
2022/06/28 07:41:14;;;;;;;2.65;1.40;;;;;;;27.45;43.99;102044.75;5049060;28;20068;-72
2022/06/28 07:43:39;;;;;;;2.35;1.40;;;;;;;27.43;44.09;102049.31;5048960;28;20400;-72
2022/06/28 07:46:05;;;;;;;4.55;1.58;;;;;;;27.44;44.33;102044.81;5048864;28;20059;-72
2022/06/28 07:48:31;;;;;;;4.18;1.40;;;;;;;27.44;44.07;102040.34;5046708;28;20060;-72
2022/06/28 07:53:40;;;;;;;3.10;1.52;;;;;;;27.45;44.21;102044.75;5048699;28;20087;-72
2022/06/28 07:56:05;;;;;;;2.33;1.40;;;;;;;27.45;43.98;102041.19;5043444;28;21429;-73
2022/06/28 07:58:31;;;;;;;3.65;1.30;;;;;;;27.49;43.93;102047.31;5046725;28;20411;-73
2022/06/28 08:00:56;;;;;;;2.60;1.30;;;;;;;27.50;43.93;102043.72;5048401;28;20497;-72
2022/06/28 08:03:21;;;;;;;2.20;1.38;;;;;;;27.49;44.12;102048.19;5048406;28;20053;-73
2022/06/28 08:05:47;;;;;;;2.85;1.35;;;;;;;27.52;44.16;102048.09;5048470;28;20541;-72
2022/06/28 08:08:12;;;;;;;3.05;1.30;;;;;;;27.54;44.02;102045.38;5048921;28;20033;-72
2022/06/28 08:10:38;;;;;;;2.97;1.30;;;;;;;27.49;44.10;102047.31;5048566;28;20033;-71
2022/06/28 08:13:03;;;;;;;2.53;1.27;;;;;;;27.49;43.83;102047.31;5047996;28;20367;-72
2022/06/28 08:15:28;;;;;;;2.03;1.30;;;;;;;27.52;43.85;102041.84;5047320;28;20391;-71
2022/06/28 08:17:54;;;;;;;2.97;1.38;;;;;;;27.52;43.69;102045.41;5048708;28;20151;-71
2022/06/28 08:20:20;;;;;;;2.45;1.40;;;;;;;27.53;44.10;102043.59;5047109;28;20029;-72
2022/06/28 08:22:46;;;;;;;2.05;1.30;;;;;;;27.52;44.15;102039.19;5048055;28;20034;-72
2022/06/28 08:25:11;;;;;;;3.70;1.40;;;;;;;27.50;44.23;102041.91;5047477;28;20368;-71
2022/06/28 08:27:37;;;;;;;2.10;1.30;;;;;;;27.51;43.98;102048.16;5047298;28;20709;-71
2022/06/28 08:30:04;;;;;;;2.35;1.30;;;;;;;27.50;44.00;102043.72;5048559;28;20660;-71
2022/06/28 08:32:29;;;;;;;2.65;1.30;;;;;;;27.51;43.92;102037.44;5048428;28;20032;-71
2022/06/28 08:34:55;;;;;;;2.38;1.30;;;;;;;27.52;43.98;102039.19;5048157;28;20391;-72
2022/06/28 08:37:21;;;;;;;1.70;1.15;;;;;;;27.50;44.17;102039.22;5048235;28;20163;-71
2022/06/28 08:39:47;;;;;;;1.77;1.30;;;;;;;27.50;44.18;102041.03;5046072;28;20037;-71
2022/06/28 08:42:24;;;;;;;2.67;1.30;;;;;;;27.53;43.96;102044.50;5048042;28;20533;-72
2022/06/28 08:44:50;;;;;;;2.35;1.27;;;;;;;27.55;43.92;102042.63;5043671;28;20057;-71
2022/06/28 08:47:19;;;;;;;2.63;1.35;;;;;;;27.54;43.78;102043.56;5048063;28;20056;-72
2022/06/28 08:49:55;;;;;;;2.40;1.40;;;;;;;27.52;43.87;102037.38;5048000;28;20437;-71
2022/06/28 08:52:22;;;;;;;2.05;1.30;;;;;;;27.56;43.97;102035.47;5038824;28;20020;-71
2022/06/28 08:54:50;;;;;;;3.65;1.30;;;;;;;27.56;44.17;102033.66;5047923;28;20037;-71
2022/06/28 08:57:18;;;;;;;2.28;1.30;;;;;;;27.62;43.90;102032.56;5047850;28;20036;-72
2022/06/28 08:59:44;;;;;;;2.70;1.30;;;;;;;27.59;44.04;102033.53;5048546;28;20509;-71
2022/06/28 09:02:13;;;;;;;3.65;1.30;;;;;;;27.61;44.10;102039.72;5047088;28;20037;-71
2022/06/28 09:04:39;;;;;;;2.17;1.20;;;;;;;27.60;43.71;102027.25;5047980;28;20108;-71
2022/06/28 09:07:04;;;;;;;1.77;1.10;;;;;;;27.59;44.11;102021.94;5047771;28;20120;-71
2022/06/28 09:09:29;;;;;;;1.98;1.17;;;;;;;27.57;44.06;102024.66;5048046;28;20068;-72
2022/06/28 09:11:55;;;;;;;2.03;1.20;;;;;;;27.60;43.56;102031.72;5048800;28;20029;-71
2022/06/28 09:14:35;;;;;;;1.58;1.20;;;;;;;27.61;44.04;102030.81;5051762;28;20033;-71
2022/06/28 09:17:22;;;;;;;1.98;1.25;;;;;;;27.61;44.13;102023.63;5051680;28;20414;-71
2022/06/28 09:19:48;;;;;;;3.25;1.30;;;;;;;27.60;44.19;102029.06;5051221;28;20037;-71
2022/06/28 09:22:38;;;;;;;2.38;1.20;;;;;;;27.61;43.96;102023.63;5050329;28;20031;-71
2022/06/28 09:25:07;;;;;;;2.47;1.38;;;;;;;27.60;44.19;102008.50;5051788;28;20554;-71
2022/06/28 09:27:36;;;;;;;2.17;1.25;;;;;;;27.64;43.60;102012.78;5051502;28;20032;-71
2022/06/28 09:30:05;;;;;;;2.58;1.23;;;;;;;27.65;43.71;102014.53;5051048;28;20044;-71
2022/06/28 09:32:32;;;;;;;1.80;1.20;;;;;;;27.67;43.66;102006.44;5050022;28;20108;-71
2022/06/28 09:35:04;;;;;;;2.15;1.23;;;;;;;27.67;44.03;102010.00;5046997;28;20059;-71
2022/06/28 09:37:56;;;;;;;2.45;1.30;;;;;;;27.68;43.70;102011.75;5051012;28;20024;-71
2022/06/28 09:40:21;;;;;;;1.95;1.20;;;;;;;27.68;44.00;102010.88;5050017;28;20060;-72
2022/06/28 09:43:08;;;;;;;2.05;1.10;;;;;;;27.65;44.06;102009.19;5049865;28;20087;-71
2022/06/28 09:45:35;;;;;;;1.92;1.08;;;;;;;27.67;44.00;102009.13;5048299;28;20132;-72
2022/06/28 09:48:01;;;;;;;2.17;1.23;;;;;;;27.69;44.12;102004.59;5048039;28;20032;-71
2022/06/28 09:50:29;;;;;;;1.65;1.20;;;;;;;27.70;44.01;102006.31;5050628;28;20056;-72
2022/06/28 09:52:55;;;;;;;2.20;1.30;;;;;;;27.67;44.12;102007.31;5049450;28;20503;-71
2022/06/28 09:55:23;;;;;;;3.17;1.17;;;;;;;27.67;44.00;102006.44;5048121;28;20111;-72
2022/06/28 09:57:48;;;;;;;3.78;1.15;;;;;;;27.68;44.00;102003.72;5044526;28;20091;-71
2022/06/28 10:00:16;;;;;;;1.75;1.10;;;;;;;27.71;43.85;102002.69;5033033;28;20479;-71
2022/06/28 10:02:42;;;;;;;1.80;1.13;;;;;;;27.70;44.06;102001.81;5049575;28;20055;-71
2022/06/28 10:05:11;;;;;;;1.45;1.05;;;;;;;27.71;44.22;102005.38;5050497;28;20083;-71
2022/06/28 10:07:38;;;;;;;2.22;1.30;;;;;;;27.71;43.88;101997.34;5039885;28;20044;-71
2022/06/28 10:10:04;;;;;;;1.55;1.10;;;;;;;27.71;43.94;102000.91;5050869;28;20108;-71
2022/06/28 10:15:26;;;;;;;1.65;1.10;;;;;;;27.80;43.72;102003.22;5029955;28;20088;-70
2022/06/28 10:17:59;;;;;;;1.98;1.20;;;;;;;27.82;43.66;102005.81;5048160;28;20056;-70
2022/06/28 10:20:28;;;;;;;2.08;1.05;;;;;;;27.82;43.30;102000.44;5046824;28;20037;-72
2022/06/28 10:23:23;;;;;;;3.58;1.30;;;;;;;27.81;43.29;101998.72;5050128;28;20035;-73
2022/06/28 10:26:08;;;;;;;2.00;1.10;;;;;;;27.79;42.85;101993.44;5050295;28;20171;-73
2022/06/28 10:28:44;;;;;;;2.40;1.20;;;;;;;27.79;42.41;101998.78;5051252;28;20682;-76
2022/06/28 10:31:21;;;;;;;3.88;1.30;;;;;;;27.80;42.36;101992.50;5050317;28;20025;-74
2022/06/28 10:33:48;;;;;;;5.10;1.30;;;;;;;27.83;42.22;101981.63;5050471;28;20503;-73
2022/06/28 10:36:16;;;;;;;2.47;1.27;;;;;;;27.79;41.79;101989.88;5048906;28;20053;-69
2022/06/28 10:39:09;;;;;;;3.83;1.20;;;;;;;27.71;40.83;101981.25;5050020;28;20398;-71
2022/06/28 10:41:44;;;;;;;3.75;1.33;;;;;;;27.77;40.40;101984.56;5048787;28;20420;-74
2022/06/28 10:44:10;;;;;;;2.70;1.40;;;;;;;27.84;40.76;101971.78;5054117;28;20033;-71
2022/06/28 10:46:35;;;;;;;3.67;1.33;;;;;;;27.84;40.77;101977.16;5054483;28;20120;-71
2022/06/28 10:49:05;;;;;;;2.55;1.30;;;;;;;27.84;40.80;101971.78;5054046;28;20029;-71
2022/06/28 10:51:32;;;;;;;2.40;1.30;;;;;;;27.84;40.46;101980.72;5052801;28;20415;-71
2022/06/28 10:54:06;;;;;;;4.05;1.30;;;;;;;27.85;40.82;101985.13;5054252;28;20029;-72
2022/06/28 10:56:41;;;;;;;9.00;1.50;;;;;;;27.90;40.72;101976.91;5014393;28;20460;-71
2022/06/28 10:59:12;;;;;;;5.53;1.50;;;;;;;27.93;40.09;101970.56;5014421;28;20034;-71
2022/06/28 11:01:44;;;;;;;4.40;1.40;;;;;;;27.94;40.00;101972.28;5015798;28;20048;-70
2022/06/28 11:04:18;;;;;;;5.10;1.30;;;;;;;27.95;40.26;101969.53;5053833;28;20037;-70
2022/06/28 11:06:47;;;;;;;4.05;1.20;;;;;;;27.97;40.15;101961.44;5053765;28;20070;-71
2022/06/28 11:09:35;;;;;;;3.72;1.40;;;;;;;27.98;39.96;101964.06;5053767;28;20033;-72
2022/06/28 11:12:12;;;;;;;3.22;1.42;;;;;;;28.01;40.17;101977.31;5053784;28;20021;-72
2022/06/28 11:14:51;;;;;;;4.20;1.40;;;;;;;28.03;39.74;101969.22;5053823;28;20455;-72
2022/06/28 11:17:27;;;;;;;5.10;1.33;;;;;;;28.04;39.92;101979.88;5053607;28;20473;-72
2022/06/28 11:20:00;;;;;;;2.92;1.13;;;;;;;28.06;39.66;101966.41;5053510;28;20028;-70
2022/06/28 11:22:38;;;;;;;4.05;1.25;;;;;;;28.09;39.79;101969.84;5052235;28;20031;-70
2022/06/28 11:25:06;;;;;;;2.78;1.17;;;;;;;28.10;40.10;101973.41;5052302;28;20036;-70
2022/06/28 11:27:32;;;;;;;4.63;1.33;;;;;;;28.10;40.13;101968.91;5053511;28;20025;-69
2022/06/28 11:30:00;;;;;;;3.88;1.50;;;;;;;28.07;40.22;101971.69;5052859;28;20057;-73
2022/06/28 11:32:37;;;;;;;4.97;1.50;;;;;;;28.08;40.18;101968.09;5053059;28;20047;-72
2022/06/28 11:35:29;;;;;;;7.10;1.20;;;;;;;28.06;40.33;101956.56;5050169;28;20029;-71
2022/06/28 11:38:04;;;;;;;2.67;1.20;;;;;;;28.08;39.39;101962.72;5042365;28;20035;-72
2022/06/28 11:40:38;;;;;;;4.15;1.20;;;;;;;28.00;39.17;101963.97;5050540;28;20054;-74
2022/06/28 11:43:13;;;;;;;5.18;1.20;;;;;;;28.05;38.31;101960.19;5041127;28;20108;-75